sensor_id;sensor_type;location;lat;lon;timestamp;P1;durP1;ratioP1;P2;durP2;ratioP2
6436;SDS011;3251;53.550;9.918;2023-06-22T06:58:10;6.27;;;3.93;;
6436;SDS011;3251;53.550;9.918;2023-06-22T07:00:38;10.33;;;5.00;;
6436;SDS011;3251;53.550;9.918;2023-06-22T07:03:04;4.03;;;3.73;;
6436;SDS011;3251;53.550;9.918;2023-06-22T07:05:32;5.07;;;4.53;;
6436;SDS011;3251;53.550;9.918;2023-06-22T07:07:58;3.43;;;3.13;;
6436;SDS011;3251;53.550;9.918;2023-06-22T07:10:24;7.17;;;4.47;;
6436;SDS011;3251;53.550;9.918;2023-06-22T07:12:50;4.67;;;4.27;;
6436;SDS011;3251;53.550;9.918;2023-06-22T07:15:19;5.50;;;4.40;;
6436;SDS011;3251;53.550;9.918;2023-06-22T07:17:45;5.73;;;4.80;;
6436;SDS011;3251;53.550;9.918;2023-06-22T07:20:12;6.50;;;3.83;;
6436;SDS011;3251;53.550;9.918;2023-06-22T07:22:38;6.53;;;4.30;;
6436;SDS011;3251;53.550;9.918;2023-06-22T07:25:05;4.97;;;4.33;;
6436;SDS011;3251;53.550;9.918;2023-06-22T07:28:16;3.63;;;3.33;;
6436;SDS011;3251;53.550;9.918;2023-06-22T07:30:23;5.53;;;3.80;;
6436;SDS011;3251;53.550;9.918;2023-06-22T07:32:49;3.80;;;3.37;;
6436;SDS011;3251;53.550;9.918;2023-06-22T07:35:16;7.53;;;4.10;;
6436;SDS011;3251;53.550;9.918;2023-06-22T07:37:42;5.80;;;4.33;;
6436;SDS011;3251;53.550;9.918;2023-06-22T07:40:08;4.17;;;3.77;;
6436;SDS011;3251;53.550;9.918;2023-06-22T07:42:34;6.77;;;3.83;;
6436;SDS011;3251;53.550;9.918;2023-06-22T07:45:02;6.43;;;3.40;;
6436;SDS011;3251;53.550;9.918;2023-06-22T07:47:28;4.30;;;4.00;;
6436;SDS011;3251;53.550;9.918;2023-06-22T07:49:57;5.40;;;3.07;;
6436;SDS011;3251;53.550;9.918;2023-06-22T07:52:26;5.90;;;3.97;;
6436;SDS011;3251;53.550;9.918;2023-06-22T07:54:52;6.50;;;4.90;;
6436;SDS011;3251;53.550;9.918;2023-06-22T07:57:18;4.80;;;3.70;;
6436;SDS011;3251;53.550;9.918;2023-06-22T07:59:44;9.63;;;3.63;;
6436;SDS011;3251;53.550;9.918;2023-06-22T08:02:11;6.03;;;4.00;;
6436;SDS011;3251;53.550;9.918;2023-06-22T08:04:37;7.50;;;3.43;;
6436;SDS011;3251;53.550;9.918;2023-06-22T08:07:03;4.40;;;3.50;;
6436;SDS011;3251;53.550;9.918;2023-06-22T08:09:30;6.00;;;3.40;;
6436;SDS011;3251;53.550;9.918;2023-06-22T08:11:56;3.97;;;2.83;;
6436;SDS011;3251;53.550;9.918;2023-06-22T08:14:23;6.47;;;3.33;;
6436;SDS011;3251;53.550;9.918;2023-06-22T08:16:49;4.10;;;3.60;;
6436;SDS011;3251;53.550;9.918;2023-06-22T08:19:15;7.00;;;2.70;;
6436;SDS011;3251;53.550;9.918;2023-06-22T08:21:42;5.63;;;3.70;;
6436;SDS011;3251;53.550;9.918;2023-06-22T08:24:08;9.70;;;3.97;;
6436;SDS011;3251;53.550;9.918;2023-06-22T08:26:34;7.43;;;3.30;;
6436;SDS011;3251;53.550;9.918;2023-06-22T08:29:05;10.30;;;3.87;;
6436;SDS011;3251;53.550;9.918;2023-06-22T08:31:31;3.33;;;2.90;;
6436;SDS011;3251;53.550;9.918;2023-06-22T08:34:00;5.77;;;2.60;;
6436;SDS011;3251;53.550;9.918;2023-06-22T08:36:27;4.43;;;2.93;;
6436;SDS011;3251;53.550;9.918;2023-06-22T08:38:58;3.43;;;3.13;;
6436;SDS011;3251;53.550;9.918;2023-06-22T08:41:26;6.40;;;3.23;;
6436;SDS011;3251;53.550;9.918;2023-06-22T08:43:52;4.23;;;2.67;;
6436;SDS011;3251;53.550;9.918;2023-06-22T08:46:19;4.10;;;3.07;;
6436;SDS011;3251;53.550;9.918;2023-06-22T08:48:48;3.37;;;2.80;;
6436;SDS011;3251;53.550;9.918;2023-06-22T08:51:15;3.20;;;2.80;;
6436;SDS011;3251;53.550;9.918;2023-06-22T08:53:42;3.23;;;2.63;;
6436;SDS011;3251;53.550;9.918;2023-06-22T08:56:10;4.23;;;2.60;;
6436;SDS011;3251;53.550;9.918;2023-06-22T08:58:36;2.93;;;2.73;;
6436;SDS011;3251;53.550;9.918;2023-06-22T09:01:02;3.53;;;2.53;;
6436;SDS011;3251;53.550;9.918;2023-06-22T09:03:29;2.27;;;2.07;;
6436;SDS011;3251;53.550;9.918;2023-06-22T09:05:57;3.10;;;2.90;;
6436;SDS011;3251;53.550;9.918;2023-06-22T09:08:23;3.10;;;2.07;;
6436;SDS011;3251;53.550;9.918;2023-06-22T09:10:50;12.33;;;2.90;;
6436;SDS011;3251;53.550;9.918;2023-06-22T09:13:16;2.40;;;2.20;;
6436;SDS011;3251;53.550;9.918;2023-06-22T09:15:42;4.00;;;2.70;;
6436;SDS011;3251;53.550;9.918;2023-06-22T09:18:10;6.40;;;3.30;;
6436;SDS011;3251;53.550;9.918;2023-06-22T09:20:37;2.67;;;2.47;;
6436;SDS011;3251;53.550;9.918;2023-06-22T09:23:03;2.87;;;2.60;;
6436;SDS011;3251;53.550;9.918;2023-06-22T09:25:29;6.10;;;3.17;;
6436;SDS011;3251;53.550;9.918;2023-06-22T09:27:55;3.67;;;2.90;;
6436;SDS011;3251;53.550;9.918;2023-06-22T09:30:22;2.70;;;2.50;;
6436;SDS011;3251;53.550;9.918;2023-06-22T09:32:48;5.73;;;3.10;;
6436;SDS011;3251;53.550;9.918;2023-06-22T09:35:14;3.00;;;2.37;;
6436;SDS011;3251;53.550;9.918;2023-06-22T09:37:40;3.87;;;2.10;;
6436;SDS011;3251;53.550;9.918;2023-06-22T09:40:07;3.00;;;2.50;;
6436;SDS011;3251;53.550;9.918;2023-06-22T09:42:35;2.90;;;2.70;;
6436;SDS011;3251;53.550;9.918;2023-06-22T09:45:01;9.40;;;3.27;;
6436;SDS011;3251;53.550;9.918;2023-06-22T09:47:27;4.70;;;2.50;;
6436;SDS011;3251;53.550;9.918;2023-06-22T09:49:54;5.30;;;2.40;;
6436;SDS011;3251;53.550;9.918;2023-06-22T09:52:21;2.47;;;2.27;;
6436;SDS011;3251;53.550;9.918;2023-06-22T09:54:47;2.43;;;2.20;;
6436;SDS011;3251;53.550;9.918;2023-06-22T09:57:13;9.70;;;2.63;;
6436;SDS011;3251;53.550;9.918;2023-06-22T09:59:39;2.50;;;2.30;;
6436;SDS011;3251;53.550;9.918;2023-06-22T10:02:06;2.90;;;2.70;;
6436;SDS011;3251;53.550;9.918;2023-06-22T10:04:33;2.37;;;2.20;;
6436;SDS011;3251;53.550;9.918;2023-06-22T10:06:59;6.60;;;3.27;;
6436;SDS011;3251;53.550;9.918;2023-06-22T10:09:25;11.80;;;3.20;;
6436;SDS011;3251;53.550;9.918;2023-06-22T10:11:51;3.17;;;2.20;;
6436;SDS011;3251;53.550;9.918;2023-06-22T10:14:17;2.23;;;2.03;;
6436;SDS011;3251;53.550;9.918;2023-06-22T10:16:43;2.80;;;2.60;;
6436;SDS011;3251;53.550;9.918;2023-06-22T10:19:09;4.03;;;3.13;;
6436;SDS011;3251;53.550;9.918;2023-06-22T10:21:36;3.23;;;2.83;;
6436;SDS011;3251;53.550;9.918;2023-06-22T10:24:04;3.63;;;2.53;;
6436;SDS011;3251;53.550;9.918;2023-06-22T10:26:35;2.57;;;2.33;;
6436;SDS011;3251;53.550;9.918;2023-06-22T10:29:02;3.60;;;3.30;;
6436;SDS011;3251;53.550;9.918;2023-06-22T10:31:31;9.03;;;2.80;;
6436;SDS011;3251;53.550;9.918;2023-06-22T10:33:57;2.93;;;2.73;;
6436;SDS011;3251;53.550;9.918;2023-06-22T10:36:23;2.67;;;2.40;;
6436;SDS011;3251;53.550;9.918;2023-06-22T10:38:49;4.80;;;3.17;;
6436;SDS011;3251;53.550;9.918;2023-06-22T10:41:15;8.43;;;2.93;;
6436;SDS011;3251;53.550;9.918;2023-06-22T10:43:42;3.70;;;2.90;;
6436;SDS011;3251;53.550;9.918;2023-06-22T10:46:08;3.77;;;3.57;;
6436;SDS011;3251;53.550;9.918;2023-06-22T10:48:35;2.90;;;2.70;;
6436;SDS011;3251;53.550;9.918;2023-06-22T10:51:01;2.67;;;2.57;;
6436;SDS011;3251;53.550;9.918;2023-06-22T10:53:27;3.57;;;3.27;;
6436;SDS011;3251;53.550;9.918;2023-06-22T10:55:53;3.37;;;2.70;;
6436;SDS011;3251;53.550;9.918;2023-06-22T10:58:19;3.70;;;3.43;;
6436;SDS011;3251;53.550;9.918;2023-06-22T11:00:45;3.87;;;3.50;;
6436;SDS011;3251;53.550;9.918;2023-06-22T11:03:12;3.30;;;3.10;;
6436;SDS011;3251;53.550;9.918;2023-06-22T11:05:39;3.40;;;3.13;;
6436;SDS011;3251;53.550;9.918;2023-06-22T11:08:07;4.43;;;4.07;;
6436;SDS011;3251;53.550;9.918;2023-06-22T11:10:33;3.57;;;3.27;;
6436;SDS011;3251;53.550;9.918;2023-06-22T11:12:59;4.00;;;3.63;;
6436;SDS011;3251;53.550;9.918;2023-06-22T11:15:25;9.90;;;4.00;;
6436;SDS011;3251;53.550;9.918;2023-06-22T11:17:51;4.17;;;3.80;;
6436;SDS011;3251;53.550;9.918;2023-06-22T11:20:17;5.40;;;5.00;;
6436;SDS011;3251;53.550;9.918;2023-06-22T11:22:43;3.63;;;3.43;;
6436;SDS011;3251;53.550;9.918;2023-06-22T11:25:09;5.03;;;4.63;;
6436;SDS011;3251;53.550;9.918;2023-06-22T11:27:37;8.87;;;4.23;;
6436;SDS011;3251;53.550;9.918;2023-06-22T11:30:03;6.10;;;4.60;;
6436;SDS011;3251;53.550;9.918;2023-06-22T11:32:29;5.90;;;4.40;;
6436;SDS011;3251;53.550;9.918;2023-06-22T11:34:56;4.40;;;4.00;;
6436;SDS011;3251;53.550;9.918;2023-06-22T11:37:22;5.17;;;3.73;;
6436;SDS011;3251;53.550;9.918;2023-06-22T11:39:48;4.43;;;4.13;;
6436;SDS011;3251;53.550;9.918;2023-06-22T11:42:14;4.20;;;4.00;;
6436;SDS011;3251;53.550;9.918;2023-06-22T11:44:41;4.73;;;3.80;;
6436;SDS011;3251;53.550;9.918;2023-06-22T11:47:08;5.97;;;4.57;;
6436;SDS011;3251;53.550;9.918;2023-06-22T11:49:34;7.40;;;5.00;;
6436;SDS011;3251;53.550;9.918;2023-06-22T11:52:00;6.03;;;5.53;;
6436;SDS011;3251;53.550;9.918;2023-06-22T11:54:26;5.10;;;4.60;;
6436;SDS011;3251;53.550;9.918;2023-06-22T11:56:52;4.60;;;3.77;;
6436;SDS011;3251;53.550;9.918;2023-06-22T11:59:18;4.77;;;4.40;;
6436;SDS011;3251;53.550;9.918;2023-06-22T12:01:46;4.40;;;4.03;;
6436;SDS011;3251;53.550;9.918;2023-06-22T12:04:12;4.87;;;4.53;;
6436;SDS011;3251;53.550;9.918;2023-06-22T12:06:38;6.23;;;5.33;;
6436;SDS011;3251;53.550;9.918;2023-06-22T12:09:07;6.67;;;5.20;;
6436;SDS011;3251;53.550;9.918;2023-06-22T12:11:33;4.57;;;4.20;;
6436;SDS011;3251;53.550;9.918;2023-06-22T12:13:59;5.37;;;4.97;;
6436;SDS011;3251;53.550;9.918;2023-06-22T12:16:27;4.43;;;4.03;;
6436;SDS011;3251;53.550;9.918;2023-06-22T12:18:53;6.10;;;5.50;;
6436;SDS011;3251;53.550;9.918;2023-06-22T12:21:19;5.80;;;5.20;;
6436;SDS011;3251;53.550;9.918;2023-06-22T12:23:45;5.87;;;4.90;;
6436;SDS011;3251;53.550;9.918;2023-06-22T12:26:12;4.97;;;4.53;;
6436;SDS011;3251;53.550;9.918;2023-06-22T12:28:38;6.03;;;4.47;;
6436;SDS011;3251;53.550;9.918;2023-06-22T12:31:04;7.17;;;4.03;;
6436;SDS011;3251;53.550;9.918;2023-06-22T12:33:30;5.03;;;4.63;;
6436;SDS011;3251;53.550;9.918;2023-06-22T12:35:56;4.73;;;4.37;;
6436;SDS011;3251;53.550;9.918;2023-06-22T12:38:22;5.63;;;5.13;;
6436;SDS011;3251;53.550;9.918;2023-06-22T12:40:50;5.57;;;5.17;;
6436;SDS011;3251;53.550;9.918;2023-06-22T12:43:17;6.10;;;5.60;;
6436;SDS011;3251;53.550;9.918;2023-06-22T12:45:43;7.13;;;6.53;;
6436;SDS011;3251;53.550;9.918;2023-06-22T12:48:09;5.73;;;5.33;;
6436;SDS011;3251;53.550;9.918;2023-06-22T12:50:35;7.80;;;7.07;;
6436;SDS011;3251;53.550;9.918;2023-06-22T12:53:02;6.90;;;6.30;;
6436;SDS011;3251;53.550;9.918;2023-06-22T12:55:29;6.90;;;6.20;;
6436;SDS011;3251;53.550;9.918;2023-06-22T12:57:55;6.77;;;6.27;;
6436;SDS011;3251;53.550;9.918;2023-06-22T13:00:21;6.30;;;5.80;;
6436;SDS011;3251;53.550;9.918;2023-06-22T13:02:47;13.13;;;5.53;;
6436;SDS011;3251;53.550;9.918;2023-06-22T13:05:13;6.60;;;6.00;;
6436;SDS011;3251;53.550;9.918;2023-06-22T13:07:39;9.93;;;5.83;;
6436;SDS011;3251;53.550;9.918;2023-06-22T13:10:07;6.73;;;6.23;;
6436;SDS011;3251;53.550;9.918;2023-06-22T13:12:34;9.33;;;6.20;;
6436;SDS011;3251;53.550;9.918;2023-06-22T13:15:00;6.30;;;5.60;;
6436;SDS011;3251;53.550;9.918;2023-06-22T13:17:28;9.27;;;5.40;;
6436;SDS011;3251;53.550;9.918;2023-06-22T13:19:54;8.43;;;6.50;;
6436;SDS011;3251;53.550;9.918;2023-06-22T13:22:33;5.30;;;4.70;;
6436;SDS011;3251;53.550;9.918;2023-06-22T13:25:05;6.67;;;6.10;;
6436;SDS011;3251;53.550;9.918;2023-06-22T13:27:32;6.03;;;5.43;;
6436;SDS011;3251;53.550;9.918;2023-06-22T13:29:58;5.50;;;5.00;;
6436;SDS011;3251;53.550;9.918;2023-06-22T13:32:24;5.63;;;5.23;;
6436;SDS011;3251;53.550;9.918;2023-06-22T13:34:52;5.53;;;5.17;;
6436;SDS011;3251;53.550;9.918;2023-06-22T13:37:18;5.63;;;5.13;;
6436;SDS011;3251;53.550;9.918;2023-06-22T13:39:44;9.00;;;6.97;;
6436;SDS011;3251;53.550;9.918;2023-06-22T13:42:10;9.33;;;6.10;;
6436;SDS011;3251;53.550;9.918;2023-06-22T13:44:37;7.53;;;5.57;;
6436;SDS011;3251;53.550;9.918;2023-06-22T13:47:03;6.60;;;5.70;;
6436;SDS011;3251;53.550;9.918;2023-06-22T13:49:30;5.30;;;4.90;;
6436;SDS011;3251;53.550;9.918;2023-06-22T13:51:56;5.27;;;4.93;;
6436;SDS011;3251;53.550;9.918;2023-06-22T13:54:22;6.53;;;5.40;;
6436;SDS011;3251;53.550;9.918;2023-06-22T13:56:48;6.53;;;5.97;;
6436;SDS011;3251;53.550;9.918;2023-06-22T13:59:15;5.83;;;5.23;;
6436;SDS011;3251;53.550;9.918;2023-06-22T14:01:41;4.83;;;4.43;;
6436;SDS011;3251;53.550;9.918;2023-06-22T14:04:08;8.40;;;5.70;;
6436;SDS011;3251;53.550;9.918;2023-06-22T14:06:34;6.50;;;5.67;;
6436;SDS011;3251;53.550;9.918;2023-06-22T14:09:00;6.60;;;5.17;;
6436;SDS011;3251;53.550;9.918;2023-06-22T14:11:27;6.67;;;5.60;;
6436;SDS011;3251;53.550;9.918;2023-06-22T14:13:53;6.80;;;5.10;;
6436;SDS011;3251;53.550;9.918;2023-06-22T14:16:19;6.70;;;4.60;;
6436;SDS011;3251;53.550;9.918;2023-06-22T14:18:46;5.97;;;5.47;;
6436;SDS011;3251;53.550;9.918;2023-06-22T14:21:12;6.67;;;6.20;;
6436;SDS011;3251;53.550;9.918;2023-06-22T14:23:38;5.90;;;5.50;;
6436;SDS011;3251;53.550;9.918;2023-06-22T14:26:04;5.50;;;5.00;;
6436;SDS011;3251;53.550;9.918;2023-06-22T14:28:30;8.83;;;5.30;;
6436;SDS011;3251;53.550;9.918;2023-06-22T14:30:56;5.30;;;4.90;;
6436;SDS011;3251;53.550;9.918;2023-06-22T14:33:23;5.57;;;5.10;;
6436;SDS011;3251;53.550;9.918;2023-06-22T14:35:49;5.67;;;5.20;;
6436;SDS011;3251;53.550;9.918;2023-06-22T14:38:15;7.53;;;5.33;;
6436;SDS011;3251;53.550;9.918;2023-06-22T14:40:41;9.43;;;7.43;;
6436;SDS011;3251;53.550;9.918;2023-06-22T14:43:07;5.13;;;4.83;;
6436;SDS011;3251;53.550;9.918;2023-06-22T14:45:36;10.50;;;5.63;;
6436;SDS011;3251;53.550;9.918;2023-06-22T14:48:02;6.40;;;5.80;;
6436;SDS011;3251;53.550;9.918;2023-06-22T14:50:28;6.80;;;5.90;;
6436;SDS011;3251;53.550;9.918;2023-06-22T14:52:55;6.73;;;5.80;;
6436;SDS011;3251;53.550;9.918;2023-06-22T14:55:22;6.20;;;5.70;;
6436;SDS011;3251;53.550;9.918;2023-06-22T14:57:49;9.87;;;5.40;;
6436;SDS011;3251;53.550;9.918;2023-06-22T15:00:15;5.30;;;5.00;;
6436;SDS011;3251;53.550;9.918;2023-06-22T15:02:41;9.00;;;5.43;;
6436;SDS011;3251;53.550;9.918;2023-06-22T15:05:07;6.93;;;5.00;;
6436;SDS011;3251;53.550;9.918;2023-06-22T15:07:34;7.53;;;6.50;;
6436;SDS011;3251;53.550;9.918;2023-06-22T15:10:00;7.47;;;6.37;;
6436;SDS011;3251;53.550;9.918;2023-06-22T15:12:26;7.40;;;6.80;;
6436;SDS011;3251;53.550;9.918;2023-06-22T15:14:52;12.90;;;5.80;;
6436;SDS011;3251;53.550;9.918;2023-06-22T15:17:18;7.70;;;7.10;;
6436;SDS011;3251;53.550;9.918;2023-06-22T15:19:45;8.07;;;6.47;;
6436;SDS011;3251;53.550;9.918;2023-06-22T15:22:11;7.80;;;5.60;;
6436;SDS011;3251;53.550;9.918;2023-06-22T15:24:37;7.20;;;6.07;;
6436;SDS011;3251;53.550;9.918;2023-06-22T15:27:04;5.40;;;5.00;;
6436;SDS011;3251;53.550;9.918;2023-06-22T15:29:30;5.83;;;5.33;;
6436;SDS011;3251;53.550;9.918;2023-06-22T15:31:59;6.50;;;6.00;;
6436;SDS011;3251;53.550;9.918;2023-06-22T15:34:25;10.33;;;5.00;;
6436;SDS011;3251;53.550;9.918;2023-06-22T15:36:54;6.60;;;5.50;;
6436;SDS011;3251;53.550;9.918;2023-06-22T15:39:20;5.70;;;4.93;;
6436;SDS011;3251;53.550;9.918;2023-06-22T15:41:48;6.17;;;5.80;;
6436;SDS011;3251;53.550;9.918;2023-06-22T15:44:14;5.43;;;4.93;;
6436;SDS011;3251;53.550;9.918;2023-06-22T15:46:40;7.50;;;5.60;;
6436;SDS011;3251;53.550;9.918;2023-06-22T15:49:07;7.17;;;5.93;;
6436;SDS011;3251;53.550;9.918;2023-06-22T15:51:33;12.33;;;6.70;;
6436;SDS011;3251;53.550;9.918;2023-06-22T15:53:59;8.83;;;5.53;;
6436;SDS011;3251;53.550;9.918;2023-06-22T15:56:26;5.40;;;4.90;;
6436;SDS011;3251;53.550;9.918;2023-06-22T15:58:52;6.10;;;5.50;;
6436;SDS011;3251;53.550;9.918;2023-06-22T16:01:18;7.63;;;5.10;;
6436;SDS011;3251;53.550;9.918;2023-06-22T16:03:45;7.23;;;5.70;;
6436;SDS011;3251;53.550;9.918;2023-06-22T16:06:11;5.33;;;4.50;;
6436;SDS011;3251;53.550;9.918;2023-06-22T16:08:37;4.47;;;4.03;;
6436;SDS011;3251;53.550;9.918;2023-06-22T16:11:03;4.13;;;3.83;;
6436;SDS011;3251;53.550;9.918;2023-06-22T16:13:29;6.50;;;5.17;;
6436;SDS011;3251;53.550;9.918;2023-06-22T16:15:55;5.10;;;4.80;;
6436;SDS011;3251;53.550;9.918;2023-06-22T16:18:21;6.00;;;4.20;;
6436;SDS011;3251;53.550;9.918;2023-06-22T16:20:48;5.50;;;5.10;;
6436;SDS011;3251;53.550;9.918;2023-06-22T16:23:14;9.90;;;4.90;;
6436;SDS011;3251;53.550;9.918;2023-06-22T16:25:40;11.00;;;4.10;;
6436;SDS011;3251;53.550;9.918;2023-06-22T16:28:06;5.70;;;5.30;;
6436;SDS011;3251;53.550;9.918;2023-06-22T16:30:32;15.43;;;4.27;;
6436;SDS011;3251;53.550;9.918;2023-06-22T16:32:58;4.00;;;3.70;;
6436;SDS011;3251;53.550;9.918;2023-06-22T16:35:25;3.60;;;3.33;;
6436;SDS011;3251;53.550;9.918;2023-06-22T16:37:54;6.43;;;4.07;;
6436;SDS011;3251;53.550;9.918;2023-06-22T16:40:21;4.53;;;4.10;;
6436;SDS011;3251;53.550;9.918;2023-06-22T16:42:47;3.70;;;3.47;;
6436;SDS011;3251;53.550;9.918;2023-06-22T16:45:13;4.37;;;4.07;;
6436;SDS011;3251;53.550;9.918;2023-06-22T16:47:45;5.13;;;3.50;;
6436;SDS011;3251;53.550;9.918;2023-06-22T16:50:11;4.03;;;3.33;;
6436;SDS011;3251;53.550;9.918;2023-06-22T16:52:37;7.10;;;5.40;;
6436;SDS011;3251;53.550;9.918;2023-06-22T16:55:06;4.80;;;3.93;;
6436;SDS011;3251;53.550;9.918;2023-06-22T16:57:33;4.60;;;4.20;;
6436;SDS011;3251;53.550;9.918;2023-06-22T16:59:59;4.70;;;4.17;;
6436;SDS011;3251;53.550;9.918;2023-06-22T17:02:26;9.50;;;4.00;;
6436;SDS011;3251;53.550;9.918;2023-06-22T17:04:53;4.33;;;4.03;;
6436;SDS011;3251;53.550;9.918;2023-06-22T17:07:20;3.90;;;3.50;;
6436;SDS011;3251;53.550;9.918;2023-06-22T17:09:48;3.50;;;3.30;;
6436;SDS011;3251;53.550;9.918;2023-06-22T17:12:14;4.20;;;3.37;;
6436;SDS011;3251;53.550;9.918;2023-06-22T17:14:43;4.80;;;3.57;;
6436;SDS011;3251;53.550;9.918;2023-06-22T17:17:14;3.47;;;3.20;;
6436;SDS011;3251;53.550;9.918;2023-06-22T17:19:42;4.30;;;3.67;;
6436;SDS011;3251;53.550;9.918;2023-06-22T17:22:08;3.57;;;3.20;;
6436;SDS011;3251;53.550;9.918;2023-06-22T17:24:35;6.10;;;4.00;;
6436;SDS011;3251;53.550;9.918;2023-06-22T17:27:01;4.77;;;4.37;;
6436;SDS011;3251;53.550;9.918;2023-06-22T17:29:28;10.60;;;4.50;;
6436;SDS011;3251;53.550;9.918;2023-06-22T17:31:56;3.47;;;3.27;;
6436;SDS011;3251;53.550;9.918;2023-06-22T17:34:26;5.23;;;3.63;;
6436;SDS011;3251;53.550;9.918;2023-06-22T17:36:53;4.87;;;4.57;;
6436;SDS011;3251;53.550;9.918;2023-06-22T17:39:25;9.63;;;4.53;;
6436;SDS011;3251;53.550;9.918;2023-06-22T17:41:51;5.40;;;3.90;;
6436;SDS011;3251;53.550;9.918;2023-06-22T17:44:18;4.07;;;3.77;;
6436;SDS011;3251;53.550;9.918;2023-06-22T17:46:44;5.40;;;3.97;;
6436;SDS011;3251;53.550;9.918;2023-06-22T17:49:11;4.90;;;4.07;;
6436;SDS011;3251;53.550;9.918;2023-06-22T17:51:43;8.20;;;4.30;;
6436;SDS011;3251;53.550;9.918;2023-06-22T17:54:10;8.27;;;3.87;;
6436;SDS011;3251;53.550;9.918;2023-06-22T17:56:36;10.40;;;4.87;;
6436;SDS011;3251;53.550;9.918;2023-06-22T17:59:03;4.23;;;3.90;;
6436;SDS011;3251;53.550;9.918;2023-06-22T18:04:08;4.03;;;3.70;;
6436;SDS011;3251;53.550;9.918;2023-06-22T18:06:36;3.87;;;3.47;;
6436;SDS011;3251;53.550;9.918;2023-06-22T18:09:03;3.20;;;2.93;;
6436;SDS011;3251;53.550;9.918;2023-06-22T18:11:31;3.30;;;2.90;;
6436;SDS011;3251;53.550;9.918;2023-06-22T18:13:59;5.10;;;3.20;;
6436;SDS011;3251;53.550;9.918;2023-06-22T18:16:25;5.37;;;3.80;;
6436;SDS011;3251;53.550;9.918;2023-06-22T18:18:52;3.13;;;2.90;;
6436;SDS011;3251;53.550;9.918;2023-06-22T18:21:19;3.80;;;2.53;;
6436;SDS011;3251;53.550;9.918;2023-06-22T18:23:46;4.70;;;3.00;;
6436;SDS011;3251;53.550;9.918;2023-06-22T18:26:12;3.57;;;2.20;;
6436;SDS011;3251;53.550;9.918;2023-06-22T18:28:39;3.33;;;3.13;;
6436;SDS011;3251;53.550;9.918;2023-06-22T18:31:05;3.80;;;3.30;;
6436;SDS011;3251;53.550;9.918;2023-06-22T18:33:32;2.97;;;2.63;;
6436;SDS011;3251;53.550;9.918;2023-06-22T18:35:59;4.70;;;3.03;;
6436;SDS011;3251;53.550;9.918;2023-06-22T18:38:26;2.77;;;2.57;;
6436;SDS011;3251;53.550;9.918;2023-06-22T18:40:53;5.63;;;2.97;;
6436;SDS011;3251;53.550;9.918;2023-06-22T18:43:22;2.63;;;2.43;;
6436;SDS011;3251;53.550;9.918;2023-06-22T18:45:48;3.97;;;3.13;;
6436;SDS011;3251;53.550;9.918;2023-06-22T18:48:24;3.17;;;2.90;;
6436;SDS011;3251;53.550;9.918;2023-06-22T18:50:50;9.33;;;2.80;;
6436;SDS011;3251;53.550;9.918;2023-06-22T18:53:17;3.07;;;2.80;;
6436;SDS011;3251;53.550;9.918;2023-06-22T18:55:44;2.17;;;2.00;;
6436;SDS011;3251;53.550;9.918;2023-06-22T18:58:13;3.37;;;2.50;;
6436;SDS011;3251;53.550;9.918;2023-06-22T19:00:40;2.87;;;2.67;;
6436;SDS011;3251;53.550;9.918;2023-06-22T19:03:06;4.07;;;2.60;;
6436;SDS011;3251;53.550;9.918;2023-06-22T19:05:42;6.10;;;2.50;;
6436;SDS011;3251;53.550;9.918;2023-06-22T19:08:09;2.97;;;2.77;;
6436;SDS011;3251;53.550;9.918;2023-06-22T19:10:41;5.73;;;2.87;;
6436;SDS011;3251;53.550;9.918;2023-06-22T19:15:44;2.77;;;2.50;;
6436;SDS011;3251;53.550;9.918;2023-06-22T19:20:39;2.57;;;2.20;;
6436;SDS011;3251;53.550;9.918;2023-06-22T19:23:05;2.60;;;2.30;;
6436;SDS011;3251;53.550;9.918;2023-06-22T19:25:31;3.80;;;2.40;;
6436;SDS011;3251;53.550;9.918;2023-06-22T19:28:00;2.67;;;1.50;;
6436;SDS011;3251;53.550;9.918;2023-06-22T19:30:28;2.83;;;1.90;;
6436;SDS011;3251;53.550;9.918;2023-06-22T19:32:57;2.20;;;2.00;;
6436;SDS011;3251;53.550;9.918;2023-06-22T19:35:23;1.80;;;1.70;;
6436;SDS011;3251;53.550;9.918;2023-06-22T19:37:49;2.17;;;1.97;;
6436;SDS011;3251;53.550;9.918;2023-06-22T19:40:16;1.53;;;1.43;;
6436;SDS011;3251;53.550;9.918;2023-06-22T19:42:43;1.77;;;1.60;;
6436;SDS011;3251;53.550;9.918;2023-06-22T19:45:09;1.73;;;1.63;;
6436;SDS011;3251;53.550;9.918;2023-06-22T19:47:39;3.10;;;1.60;;
6436;SDS011;3251;53.550;9.918;2023-06-22T19:50:05;4.70;;;1.53;;
6436;SDS011;3251;53.550;9.918;2023-06-22T19:52:41;2.07;;;1.90;;
6436;SDS011;3251;53.550;9.918;2023-06-22T19:55:08;2.30;;;2.10;;
6436;SDS011;3251;53.550;9.918;2023-06-22T19:57:38;1.67;;;1.40;;
6436;SDS011;3251;53.550;9.918;2023-06-22T20:00:05;2.63;;;1.63;;
6436;SDS011;3251;53.550;9.918;2023-06-22T20:02:35;4.87;;;2.00;;
6436;SDS011;3251;53.550;9.918;2023-06-22T20:05:07;4.20;;;1.83;;
6436;SDS011;3251;53.550;9.918;2023-06-22T20:07:34;2.70;;;2.07;;
6436;SDS011;3251;53.550;9.918;2023-06-22T20:10:19;3.63;;;2.17;;
6436;SDS011;3251;53.550;9.918;2023-06-22T20:12:49;5.40;;;1.70;;
6436;SDS011;3251;53.550;9.918;2023-06-22T20:15:19;1.40;;;1.30;;
6436;SDS011;3251;53.550;9.918;2023-06-22T20:18:21;2.33;;;1.60;;
6436;SDS011;3251;53.550;9.918;2023-06-22T20:20:42;2.87;;;2.20;;
6436;SDS011;3251;53.550;9.918;2023-06-22T20:23:09;3.53;;;2.07;;
6436;SDS011;3251;53.550;9.918;2023-06-22T20:25:36;1.80;;;1.47;;
6436;SDS011;3251;53.550;9.918;2023-06-22T20:28:13;2.33;;;1.80;;
6436;SDS011;3251;53.550;9.918;2023-06-22T20:30:42;2.10;;;1.57;;
6436;SDS011;3251;53.550;9.918;2023-06-22T20:33:15;2.23;;;1.80;;
6436;SDS011;3251;53.550;9.918;2023-06-22T20:35:41;2.60;;;2.40;;
6436;SDS011;3251;53.550;9.918;2023-06-22T20:38:08;6.10;;;1.60;;
6436;SDS011;3251;53.550;9.918;2023-06-22T20:40:34;3.40;;;2.30;;
6436;SDS011;3251;53.550;9.918;2023-06-22T20:43:00;5.77;;;2.17;;
6436;SDS011;3251;53.550;9.918;2023-06-22T20:45:27;4.83;;;2.90;;
6436;SDS011;3251;53.550;9.918;2023-06-22T20:47:55;2.50;;;2.17;;
6436;SDS011;3251;53.550;9.918;2023-06-22T20:50:22;3.23;;;2.10;;
6436;SDS011;3251;53.550;9.918;2023-06-22T20:52:48;4.80;;;2.70;;
6436;SDS011;3251;53.550;9.918;2023-06-22T20:55:16;5.83;;;3.30;;
6436;SDS011;3251;53.550;9.918;2023-06-22T20:57:43;10.73;;;4.07;;
6436;SDS011;3251;53.550;9.918;2023-06-22T21:00:09;4.63;;;3.23;;
6436;SDS011;3251;53.550;9.918;2023-06-22T21:02:36;4.90;;;2.87;;
6436;SDS011;3251;53.550;9.918;2023-06-22T21:05:02;7.07;;;3.27;;
6436;SDS011;3251;53.550;9.918;2023-06-22T21:07:28;5.10;;;4.10;;
6436;SDS011;3251;53.550;9.918;2023-06-22T21:09:54;3.30;;;3.00;;
6436;SDS011;3251;53.550;9.918;2023-06-22T21:12:20;6.00;;;2.50;;
6436;SDS011;3251;53.550;9.918;2023-06-22T21:14:47;5.60;;;3.10;;
6436;SDS011;3251;53.550;9.918;2023-06-22T21:17:15;5.10;;;2.90;;
6436;SDS011;3251;53.550;9.918;2023-06-22T21:19:42;7.57;;;2.40;;
6436;SDS011;3251;53.550;9.918;2023-06-22T21:22:08;12.80;;;3.30;;
6436;SDS011;3251;53.550;9.918;2023-06-22T21:24:34;6.93;;;3.27;;
6436;SDS011;3251;53.550;9.918;2023-06-22T21:27:01;4.23;;;2.90;;
6436;SDS011;3251;53.550;9.918;2023-06-22T21:29:27;4.80;;;3.07;;
6436;SDS011;3251;53.550;9.918;2023-06-22T21:31:53;4.57;;;3.40;;
6436;SDS011;3251;53.550;9.918;2023-06-22T21:34:20;11.10;;;4.20;;
6436;SDS011;3251;53.550;9.918;2023-06-22T21:36:47;6.50;;;4.37;;
6436;SDS011;3251;53.550;9.918;2023-06-22T21:39:13;5.13;;;3.80;;
6436;SDS011;3251;53.550;9.918;2023-06-22T21:41:39;5.67;;;4.43;;
6436;SDS011;3251;53.550;9.918;2023-06-22T21:44:06;6.17;;;4.73;;
6436;SDS011;3251;53.550;9.918;2023-06-22T21:46:32;6.67;;;4.27;;
6436;SDS011;3251;53.550;9.918;2023-06-22T21:48:58;4.10;;;3.70;;
6436;SDS011;3251;53.550;9.918;2023-06-22T21:51:24;7.87;;;4.50;;
6436;SDS011;3251;53.550;9.918;2023-06-22T21:53:50;5.30;;;3.50;;
6436;SDS011;3251;53.550;9.918;2023-06-22T21:56:16;3.60;;;3.30;;
6436;SDS011;3251;53.550;9.918;2023-06-22T21:58:42;7.20;;;4.43;;
6436;SDS011;3251;53.550;9.918;2023-06-22T22:01:08;4.67;;;4.23;;
6436;SDS011;3251;53.550;9.918;2023-06-22T22:03:35;10.67;;;5.10;;
6436;SDS011;3251;53.550;9.918;2023-06-22T22:06:01;4.33;;;3.97;;
6436;SDS011;3251;53.550;9.918;2023-06-22T22:08:27;4.50;;;4.07;;
6436;SDS011;3251;53.550;9.918;2023-06-22T22:10:54;4.60;;;4.20;;
6436;SDS011;3251;53.550;9.918;2023-06-22T22:13:20;5.47;;;5.00;;
6436;SDS011;3251;53.550;9.918;2023-06-22T22:15:46;8.10;;;4.67;;
6436;SDS011;3251;53.550;9.918;2023-06-22T22:18:16;5.20;;;4.70;;